Terminal Aerodrome Forecast
Issued by NWS

Current Version | Previous Version | Text Only | Print | Product List | Glossary Off
Versions: 1 2 3 4 5 6 7 8 9 10 11 12 13 14 15 16 17 18 19 20 21

000
FTUS41 KPBZ 051124
TAFHLG
TAF
KHLG 051124Z 0512/0612 28012G20KT P6SM OVC015
     FM051600 27009KT P6SM BKN020
     FM051800 28006KT P6SM BKN040
     FM060700 08006KT P6SM BKN200=

USA.gov is the U.S. government's official web portal to all federal, state and local government web resources and services.